North Miami Beach, Florida
Current Conditions -  °F | °C
As of 1:53 PM on Sunday 23 Nov 2014 (Local Time) from KHWO Reporting Station
Overcast Overcast  
Wind Chill: 82°   Ceiling: 3500
Heat Index: 87°   Visibility: 10mi
Dew Point: 72°   Wind: 17mph
Humidity: 71%   Direction: 150°SSE
Pressure: 29.96"   Gusts: 24mph
Location:  25.9339°N, 80.1467°W
Report Text: KHWO 231853Z 15015G21KT 10SM SCT023 BKN035 OVC050 28/22 A2996 RMK AO2 SLP144 T02780222
Loading
Personal Weather Stations






























Interactive Weather Map New forecast layout! Learn more

10-Day Weather Forecast

Advertisements
Track Severe Weather on mobile